sensor_id;sensor_type;location;lat;lon;timestamp;temperature;humidity
9973;DHT22;5027;53.560;10.062;2024-01-27T00:00:16;11.00;99.90
9973;DHT22;5027;53.560;10.062;2024-01-27T00:02:44;11.20;99.90
9973;DHT22;5027;53.560;10.062;2024-01-27T00:05:11;10.70;99.90
9973;DHT22;5027;53.560;10.062;2024-01-27T00:07:38;10.50;99.90
9973;DHT22;5027;53.560;10.062;2024-01-27T00:10:05;10.70;99.90
9973;DHT22;5027;53.560;10.062;2024-01-27T00:12:32;10.40;99.90
9973;DHT22;5027;53.560;10.062;2024-01-27T00:14:58;10.90;99.90
9973;DHT22;5027;53.560;10.062;2024-01-27T00:17:25;10.60;99.90
9973;DHT22;5027;53.560;10.062;2024-01-27T00:19:54;10.60;99.90
9973;DHT22;5027;53.560;10.062;2024-01-27T00:22:21;10.20;99.90
9973;DHT22;5027;53.560;10.062;2024-01-27T00:24:48;9.90;99.90
9973;DHT22;5027;53.560;10.062;2024-01-27T00:27:15;9.80;99.90
9973;DHT22;5027;53.560;10.062;2024-01-27T00:29:42;10.00;99.90
9973;DHT22;5027;53.560;10.062;2024-01-27T00:32:09;9.80;99.90
9973;DHT22;5027;53.560;10.062;2024-01-27T00:34:36;9.70;99.90
9973;DHT22;5027;53.560;10.062;2024-01-27T00:37:02;10.20;99.90
9973;DHT22;5027;53.560;10.062;2024-01-27T00:39:31;10.50;99.90
9973;DHT22;5027;53.560;10.062;2024-01-27T00:41:58;10.40;99.90
9973;DHT22;5027;53.560;10.062;2024-01-27T00:44:25;10.30;99.90
9973;DHT22;5027;53.560;10.062;2024-01-27T00:46:53;10.30;99.90
9973;DHT22;5027;53.560;10.062;2024-01-27T00:49:19;10.00;99.90
9973;DHT22;5027;53.560;10.062;2024-01-27T00:51:47;10.10;99.90
9973;DHT22;5027;53.560;10.062;2024-01-27T00:54:13;10.20;99.90
9973;DHT22;5027;53.560;10.062;2024-01-27T00:56:40;10.40;99.90
9973;DHT22;5027;53.560;10.062;2024-01-27T00:59:07;10.20;99.90
9973;DHT22;5027;53.560;10.062;2024-01-27T01:01:34;10.10;99.90
9973;DHT22;5027;53.560;10.062;2024-01-27T01:04:01;9.90;99.90
9973;DHT22;5027;53.560;10.062;2024-01-27T01:06:27;10.00;99.90
9973;DHT22;5027;53.560;10.062;2024-01-27T01:08:55;10.10;99.90
9973;DHT22;5027;53.560;10.062;2024-01-27T01:11:22;9.90;99.90
9973;DHT22;5027;53.560;10.062;2024-01-27T01:13:48;10.10;99.90
9973;DHT22;5027;53.560;10.062;2024-01-27T01:16:15;10.00;99.90
9973;DHT22;5027;53.560;10.062;2024-01-27T01:18:42;10.00;99.90
9973;DHT22;5027;53.560;10.062;2024-01-27T01:21:12;10.20;99.90
9973;DHT22;5027;53.560;10.062;2024-01-27T01:23:39;9.90;99.90
9973;DHT22;5027;53.560;10.062;2024-01-27T01:26:06;9.50;99.90
9973;DHT22;5027;53.560;10.062;2024-01-27T01:28:32;9.90;99.90
9973;DHT22;5027;53.560;10.062;2024-01-27T01:31:02;10.00;99.90
9973;DHT22;5027;53.560;10.062;2024-01-27T01:33:29;10.00;99.90
9973;DHT22;5027;53.560;10.062;2024-01-27T01:35:56;10.00;99.90
9973;DHT22;5027;53.560;10.062;2024-01-27T01:38:23;10.20;99.90
9973;DHT22;5027;53.560;10.062;2024-01-27T01:40:50;9.90;99.90
9973;DHT22;5027;53.560;10.062;2024-01-27T01:43:16;9.80;99.90
9973;DHT22;5027;53.560;10.062;2024-01-27T01:45:43;10.00;99.90
9973;DHT22;5027;53.560;10.062;2024-01-27T01:48:10;9.80;99.90
9973;DHT22;5027;53.560;10.062;2024-01-27T01:50:37;9.60;99.90
9973;DHT22;5027;53.560;10.062;2024-01-27T01:53:04;9.40;99.90
9973;DHT22;5027;53.560;10.062;2024-01-27T01:55:32;9.50;99.90
9973;DHT22;5027;53.560;10.062;2024-01-27T01:57:58;9.50;99.90
9973;DHT22;5027;53.560;10.062;2024-01-27T02:00:25;10.10;99.90
9973;DHT22;5027;53.560;10.062;2024-01-27T02:02:55;10.30;99.90
9973;DHT22;5027;53.560;10.062;2024-01-27T02:05:22;10.20;99.90
9973;DHT22;5027;53.560;10.062;2024-01-27T02:07:50;9.90;99.90
9973;DHT22;5027;53.560;10.062;2024-01-27T02:10:20;10.00;99.90
9973;DHT22;5027;53.560;10.062;2024-01-27T02:12:47;9.90;99.90
9973;DHT22;5027;53.560;10.062;2024-01-27T02:15:14;9.70;99.90
9973;DHT22;5027;53.560;10.062;2024-01-27T02:17:41;9.70;99.90
9973;DHT22;5027;53.560;10.062;2024-01-27T02:20:08;9.60;99.90
9973;DHT22;5027;53.560;10.062;2024-01-27T02:22:36;9.40;99.90
9973;DHT22;5027;53.560;10.062;2024-01-27T02:25:03;9.50;99.90
9973;DHT22;5027;53.560;10.062;2024-01-27T02:27:30;9.90;99.90
9973;DHT22;5027;53.560;10.062;2024-01-27T02:29:57;10.00;99.90
9973;DHT22;5027;53.560;10.062;2024-01-27T02:32:24;10.30;99.90
9973;DHT22;5027;53.560;10.062;2024-01-27T02:34:51;10.70;99.90
9973;DHT22;5027;53.560;10.062;2024-01-27T02:37:18;10.50;99.90
9973;DHT22;5027;53.560;10.062;2024-01-27T02:39:45;10.30;99.90
9973;DHT22;5027;53.560;10.062;2024-01-27T02:42:11;9.90;99.90
9973;DHT22;5027;53.560;10.062;2024-01-27T02:44:40;10.00;99.90
9973;DHT22;5027;53.560;10.062;2024-01-27T02:47:07;10.00;99.90
9973;DHT22;5027;53.560;10.062;2024-01-27T02:49:34;9.80;99.90
9973;DHT22;5027;53.560;10.062;2024-01-27T02:52:01;9.80;99.90
9973;DHT22;5027;53.560;10.062;2024-01-27T02:54:27;9.80;99.90
9973;DHT22;5027;53.560;10.062;2024-01-27T02:56:54;10.20;99.90
9973;DHT22;5027;53.560;10.062;2024-01-27T02:59:21;10.50;99.90
9973;DHT22;5027;53.560;10.062;2024-01-27T03:01:50;10.30;99.90
9973;DHT22;5027;53.560;10.062;2024-01-27T03:04:17;10.10;99.90
9973;DHT22;5027;53.560;10.062;2024-01-27T03:06:44;9.90;99.90
9973;DHT22;5027;53.560;10.062;2024-01-27T03:09:11;10.00;99.90
9973;DHT22;5027;53.560;10.062;2024-01-27T03:11:38;9.70;99.90
9973;DHT22;5027;53.560;10.062;2024-01-27T03:14:05;9.70;99.90
9973;DHT22;5027;53.560;10.062;2024-01-27T03:16:32;9.80;99.90
9973;DHT22;5027;53.560;10.062;2024-01-27T03:18:59;9.60;99.90
9973;DHT22;5027;53.560;10.062;2024-01-27T03:21:26;9.40;99.90
9973;DHT22;5027;53.560;10.062;2024-01-27T03:23:53;9.30;99.90
9973;DHT22;5027;53.560;10.062;2024-01-27T03:26:20;9.70;99.90
9973;DHT22;5027;53.560;10.062;2024-01-27T03:28:47;9.60;99.90
9973;DHT22;5027;53.560;10.062;2024-01-27T03:31:14;9.30;99.90
9973;DHT22;5027;53.560;10.062;2024-01-27T03:33:40;9.40;99.90
9973;DHT22;5027;53.560;10.062;2024-01-27T03:36:12;9.20;99.90
9973;DHT22;5027;53.560;10.062;2024-01-27T03:38:42;9.30;99.90
9973;DHT22;5027;53.560;10.062;2024-01-27T03:41:09;9.00;99.90
9973;DHT22;5027;53.560;10.062;2024-01-27T03:43:36;9.30;99.90
9973;DHT22;5027;53.560;10.062;2024-01-27T03:46:02;9.60;99.90
9973;DHT22;5027;53.560;10.062;2024-01-27T03:48:29;9.40;99.90
9973;DHT22;5027;53.560;10.062;2024-01-27T03:50:57;9.30;99.90
9973;DHT22;5027;53.560;10.062;2024-01-27T03:53:26;9.40;99.90
9973;DHT22;5027;53.560;10.062;2024-01-27T03:55:53;9.30;99.90
9973;DHT22;5027;53.560;10.062;2024-01-27T03:58:20;9.10;99.90
9973;DHT22;5027;53.560;10.062;2024-01-27T04:00:46;9.00;99.90
9973;DHT22;5027;53.560;10.062;2024-01-27T04:03:13;9.00;99.90
9973;DHT22;5027;53.560;10.062;2024-01-27T04:05:40;8.90;99.90
9973;DHT22;5027;53.560;10.062;2024-01-27T04:08:07;9.00;99.90
9973;DHT22;5027;53.560;10.062;2024-01-27T04:10:33;9.20;99.90
9973;DHT22;5027;53.560;10.062;2024-01-27T04:13:00;9.40;99.90
9973;DHT22;5027;53.560;10.062;2024-01-27T04:15:27;9.60;99.90
9973;DHT22;5027;53.560;10.062;2024-01-27T04:17:55;9.20;99.90
9973;DHT22;5027;53.560;10.062;2024-01-27T04:20:21;9.10;99.90
9973;DHT22;5027;53.560;10.062;2024-01-27T04:22:48;9.10;99.90
9973;DHT22;5027;53.560;10.062;2024-01-27T04:25:15;9.30;99.90
9973;DHT22;5027;53.560;10.062;2024-01-27T04:27:42;9.30;99.90
9973;DHT22;5027;53.560;10.062;2024-01-27T04:30:11;9.10;99.90
9973;DHT22;5027;53.560;10.062;2024-01-27T04:32:38;9.10;99.90
9973;DHT22;5027;53.560;10.062;2024-01-27T04:35:08;9.20;99.90
9973;DHT22;5027;53.560;10.062;2024-01-27T04:37:36;9.00;99.90
9973;DHT22;5027;53.560;10.062;2024-01-27T04:40:07;9.00;99.90
9973;DHT22;5027;53.560;10.062;2024-01-27T04:42:34;9.00;99.90
9973;DHT22;5027;53.560;10.062;2024-01-27T04:45:01;8.90;99.90
9973;DHT22;5027;53.560;10.062;2024-01-27T04:47:28;9.00;99.90
9973;DHT22;5027;53.560;10.062;2024-01-27T04:49:55;9.10;99.90
9973;DHT22;5027;53.560;10.062;2024-01-27T04:52:22;9.20;99.90
9973;DHT22;5027;53.560;10.062;2024-01-27T04:54:48;9.00;99.90
9973;DHT22;5027;53.560;10.062;2024-01-27T04:57:16;9.00;99.90
9973;DHT22;5027;53.560;10.062;2024-01-27T04:59:42;9.10;99.90
9973;DHT22;5027;53.560;10.062;2024-01-27T05:02:11;9.10;99.90
9973;DHT22;5027;53.560;10.062;2024-01-27T05:04:38;9.00;99.90
9973;DHT22;5027;53.560;10.062;2024-01-27T05:07:05;9.00;99.90
9973;DHT22;5027;53.560;10.062;2024-01-27T05:09:33;9.00;99.90
9973;DHT22;5027;53.560;10.062;2024-01-27T05:12:00;9.00;99.90
9973;DHT22;5027;53.560;10.062;2024-01-27T05:14:27;9.00;99.90
9973;DHT22;5027;53.560;10.062;2024-01-27T05:16:54;8.70;99.90
9973;DHT22;5027;53.560;10.062;2024-01-27T05:19:21;8.70;99.90
9973;DHT22;5027;53.560;10.062;2024-01-27T05:21:48;8.80;99.90
9973;DHT22;5027;53.560;10.062;2024-01-27T05:24:15;8.80;99.90
9973;DHT22;5027;53.560;10.062;2024-01-27T05:26:41;8.90;99.90
9973;DHT22;5027;53.560;10.062;2024-01-27T05:29:08;8.90;99.90
9973;DHT22;5027;53.560;10.062;2024-01-27T05:31:35;9.00;99.90
9973;DHT22;5027;53.560;10.062;2024-01-27T05:34:02;8.90;99.90
9973;DHT22;5027;53.560;10.062;2024-01-27T05:36:30;9.00;99.90
9973;DHT22;5027;53.560;10.062;2024-01-27T05:38:57;8.90;99.90
9973;DHT22;5027;53.560;10.062;2024-01-27T05:41:27;8.80;99.90
9973;DHT22;5027;53.560;10.062;2024-01-27T05:43:55;8.80;99.90
9973;DHT22;5027;53.560;10.062;2024-01-27T05:46:27;8.80;99.90
9973;DHT22;5027;53.560;10.062;2024-01-27T05:48:53;8.70;99.90
9973;DHT22;5027;53.560;10.062;2024-01-27T05:51:22;8.70;99.90
9973;DHT22;5027;53.560;10.062;2024-01-27T05:53:49;8.70;99.90
9973;DHT22;5027;53.560;10.062;2024-01-27T05:56:16;8.60;99.90
9973;DHT22;5027;53.560;10.062;2024-01-27T05:58:52;8.60;99.90
9973;DHT22;5027;53.560;10.062;2024-01-27T06:01:19;8.60;99.90
9973;DHT22;5027;53.560;10.062;2024-01-27T06:03:46;8.70;99.90
9973;DHT22;5027;53.560;10.062;2024-01-27T06:06:13;8.70;99.90
9973;DHT22;5027;53.560;10.062;2024-01-27T06:08:41;8.70;99.90
9973;DHT22;5027;53.560;10.062;2024-01-27T06:11:08;8.60;99.90
9973;DHT22;5027;53.560;10.062;2024-01-27T06:13:36;8.50;99.90
9973;DHT22;5027;53.560;10.062;2024-01-27T06:16:08;8.70;99.90
9973;DHT22;5027;53.560;10.062;2024-01-27T06:18:38;8.60;99.90
9973;DHT22;5027;53.560;10.062;2024-01-27T06:21:05;8.70;99.90
9973;DHT22;5027;53.560;10.062;2024-01-27T06:23:33;8.60;99.90
9973;DHT22;5027;53.560;10.062;2024-01-27T06:26:07;8.60;99.90
9973;DHT22;5027;53.560;10.062;2024-01-27T06:28:34;8.60;99.90
9973;DHT22;5027;53.560;10.062;2024-01-27T06:31:02;8.60;99.90
9973;DHT22;5027;53.560;10.062;2024-01-27T06:33:29;8.60;99.90
9973;DHT22;5027;53.560;10.062;2024-01-27T06:35:56;8.50;99.90
9973;DHT22;5027;53.560;10.062;2024-01-27T06:38:23;8.60;99.90
9973;DHT22;5027;53.560;10.062;2024-01-27T06:40:49;8.50;99.90
9973;DHT22;5027;53.560;10.062;2024-01-27T06:43:16;8.60;99.90
9973;DHT22;5027;53.560;10.062;2024-01-27T06:45:43;8.50;99.90
9973;DHT22;5027;53.560;10.062;2024-01-27T06:48:09;8.20;99.90
9973;DHT22;5027;53.560;10.062;2024-01-27T06:50:36;8.30;99.90
9973;DHT22;5027;53.560;10.062;2024-01-27T06:53:03;8.30;99.90
9973;DHT22;5027;53.560;10.062;2024-01-27T06:55:30;8.30;99.90
9973;DHT22;5027;53.560;10.062;2024-01-27T06:57:56;8.40;99.90
9973;DHT22;5027;53.560;10.062;2024-01-27T07:00:23;8.40;99.90
9973;DHT22;5027;53.560;10.062;2024-01-27T07:02:50;8.40;99.90
9973;DHT22;5027;53.560;10.062;2024-01-27T07:05:17;8.30;99.90
9973;DHT22;5027;53.560;10.062;2024-01-27T07:07:44;8.30;99.90
9973;DHT22;5027;53.560;10.062;2024-01-27T07:10:10;8.40;99.90
9973;DHT22;5027;53.560;10.062;2024-01-27T07:12:37;8.30;99.90
9973;DHT22;5027;53.560;10.062;2024-01-27T07:15:05;8.30;99.90
9973;DHT22;5027;53.560;10.062;2024-01-27T07:17:31;8.40;99.90
9973;DHT22;5027;53.560;10.062;2024-01-27T07:20:01;8.20;99.90
9973;DHT22;5027;53.560;10.062;2024-01-27T07:22:28;8.20;99.90
9973;DHT22;5027;53.560;10.062;2024-01-27T07:24:55;8.20;99.90
9973;DHT22;5027;53.560;10.062;2024-01-27T07:27:23;8.20;99.90
9973;DHT22;5027;53.560;10.062;2024-01-27T07:29:50;8.20;99.90
9973;DHT22;5027;53.560;10.062;2024-01-27T07:32:17;8.20;99.90
9973;DHT22;5027;53.560;10.062;2024-01-27T07:34:44;8.30;99.90
9973;DHT22;5027;53.560;10.062;2024-01-27T07:37:11;8.40;99.90
9973;DHT22;5027;53.560;10.062;2024-01-27T07:39:38;8.20;99.90
9973;DHT22;5027;53.560;10.062;2024-01-27T07:42:05;8.00;99.90
9973;DHT22;5027;53.560;10.062;2024-01-27T07:44:39;8.10;99.90
9973;DHT22;5027;53.560;10.062;2024-01-27T07:47:05;8.20;99.90
9973;DHT22;5027;53.560;10.062;2024-01-27T07:49:32;8.20;99.90
9973;DHT22;5027;53.560;10.062;2024-01-27T07:52:01;8.00;99.90
9973;DHT22;5027;53.560;10.062;2024-01-27T07:54:28;7.80;99.90
9973;DHT22;5027;53.560;10.062;2024-01-27T07:56:55;7.90;99.90
9973;DHT22;5027;53.560;10.062;2024-01-27T07:59:22;7.80;99.90
9973;DHT22;5027;53.560;10.062;2024-01-27T08:01:49;7.80;99.90
9973;DHT22;5027;53.560;10.062;2024-01-27T08:04:16;7.90;99.90
9973;DHT22;5027;53.560;10.062;2024-01-27T08:06:50;8.00;99.90
9973;DHT22;5027;53.560;10.062;2024-01-27T08:09:18;8.00;99.90
9973;DHT22;5027;53.560;10.062;2024-01-27T08:11:45;8.10;99.90
9973;DHT22;5027;53.560;10.062;2024-01-27T08:14:12;8.10;99.90
9973;DHT22;5027;53.560;10.062;2024-01-27T08:16:39;8.00;99.90
9973;DHT22;5027;53.560;10.062;2024-01-27T08:19:06;8.10;99.90
9973;DHT22;5027;53.560;10.062;2024-01-27T08:21:40;8.00;99.90
9973;DHT22;5027;53.560;10.062;2024-01-27T08:24:07;8.10;99.90
9973;DHT22;5027;53.560;10.062;2024-01-27T08:26:33;8.20;99.90
9973;DHT22;5027;53.560;10.062;2024-01-27T08:29:00;8.30;99.90
9973;DHT22;5027;53.560;10.062;2024-01-27T08:31:27;8.20;99.90
9973;DHT22;5027;53.560;10.062;2024-01-27T08:34:04;8.20;99.90
9973;DHT22;5027;53.560;10.062;2024-01-27T08:37:01;8.30;99.90
9973;DHT22;5027;53.560;10.062;2024-01-27T08:39:28;8.10;99.90
9973;DHT22;5027;53.560;10.062;2024-01-27T08:41:55;8.10;99.90
9973;DHT22;5027;53.560;10.062;2024-01-27T08:44:22;8.20;99.90
9973;DHT22;5027;53.560;10.062;2024-01-27T08:46:49;8.10;99.90
9973;DHT22;5027;53.560;10.062;2024-01-27T08:49:16;8.20;99.90
9973;DHT22;5027;53.560;10.062;2024-01-27T08:51:43;8.10;99.90
9973;DHT22;5027;53.560;10.062;2024-01-27T08:54:09;8.20;99.90
9973;DHT22;5027;53.560;10.062;2024-01-27T08:56:39;8.30;99.90
9973;DHT22;5027;53.560;10.062;2024-01-27T08:59:07;8.10;99.90
9973;DHT22;5027;53.560;10.062;2024-01-27T09:01:33;8.20;99.90
9973;DHT22;5027;53.560;10.062;2024-01-27T09:04:00;8.30;99.90
9973;DHT22;5027;53.560;10.062;2024-01-27T09:06:27;8.20;99.90
9973;DHT22;5027;53.560;10.062;2024-01-27T09:08:57;8.10;99.90
9973;DHT22;5027;53.560;10.062;2024-01-27T09:11:24;8.30;99.90
9973;DHT22;5027;53.560;10.062;2024-01-27T09:13:53;8.40;99.90
9973;DHT22;5027;53.560;10.062;2024-01-27T09:16:20;8.30;99.90
9973;DHT22;5027;53.560;10.062;2024-01-27T09:18:48;8.30;99.90
9973;DHT22;5027;53.560;10.062;2024-01-27T09:21:17;8.50;99.90
9973;DHT22;5027;53.560;10.062;2024-01-27T09:23:49;8.40;99.90
9973;DHT22;5027;53.560;10.062;2024-01-27T09:26:15;8.10;99.90
9973;DHT22;5027;53.560;10.062;2024-01-27T09:28:45;8.00;99.90
9973;DHT22;5027;53.560;10.062;2024-01-27T09:31:13;8.20;99.90
9973;DHT22;5027;53.560;10.062;2024-01-27T09:33:41;8.60;99.90
9973;DHT22;5027;53.560;10.062;2024-01-27T09:36:09;8.20;99.90
9973;DHT22;5027;53.560;10.062;2024-01-27T09:38:36;8.20;99.90
9973;DHT22;5027;53.560;10.062;2024-01-27T09:41:02;8.20;99.90
9973;DHT22;5027;53.560;10.062;2024-01-27T09:43:29;8.20;99.90
9973;DHT22;5027;53.560;10.062;2024-01-27T09:45:58;8.50;99.90
9973;DHT22;5027;53.560;10.062;2024-01-27T09:48:26;8.60;99.90
9973;DHT22;5027;53.560;10.062;2024-01-27T09:50:53;8.60;99.90
9973;DHT22;5027;53.560;10.062;2024-01-27T09:53:21;8.60;99.90
9973;DHT22;5027;53.560;10.062;2024-01-27T09:55:48;8.40;99.90
9973;DHT22;5027;53.560;10.062;2024-01-27T09:58:15;8.50;99.90
9973;DHT22;5027;53.560;10.062;2024-01-27T10:00:42;8.50;99.90
9973;DHT22;5027;53.560;10.062;2024-01-27T10:03:09;9.90;99.90
9973;DHT22;5027;53.560;10.062;2024-01-27T10:05:36;10.20;99.90
9973;DHT22;5027;53.560;10.062;2024-01-27T10:08:06;9.70;99.90
9973;DHT22;5027;53.560;10.062;2024-01-27T10:10:35;9.30;99.90
9973;DHT22;5027;53.560;10.062;2024-01-27T10:13:03;9.10;99.90
9973;DHT22;5027;53.560;10.062;2024-01-27T10:15:32;8.80;99.90
9973;DHT22;5027;53.560;10.062;2024-01-27T10:18:06;8.50;99.90
9973;DHT22;5027;53.560;10.062;2024-01-27T10:20:34;8.80;99.90
9973;DHT22;5027;53.560;10.062;2024-01-27T10:23:10;8.80;99.90
9973;DHT22;5027;53.560;10.062;2024-01-27T10:25:38;8.90;99.90
9973;DHT22;5027;53.560;10.062;2024-01-27T10:28:08;8.80;99.90
9973;DHT22;5027;53.560;10.062;2024-01-27T10:30:36;8.70;99.90
9973;DHT22;5027;53.560;10.062;2024-01-27T10:33:04;8.80;99.90
9973;DHT22;5027;53.560;10.062;2024-01-27T10:35:31;8.80;99.90
9973;DHT22;5027;53.560;10.062;2024-01-27T10:37:57;8.80;99.90
9973;DHT22;5027;53.560;10.062;2024-01-27T10:40:26;9.00;99.90
9973;DHT22;5027;53.560;10.062;2024-01-27T10:43:02;9.10;99.90
9973;DHT22;5027;53.560;10.062;2024-01-27T10:45:41;9.40;99.90
9973;DHT22;5027;53.560;10.062;2024-01-27T10:48:09;9.10;99.90
9973;DHT22;5027;53.560;10.062;2024-01-27T10:50:40;9.30;99.90
9973;DHT22;5027;53.560;10.062;2024-01-27T10:53:24;9.50;99.90
9973;DHT22;5027;53.560;10.062;2024-01-27T10:55:57;9.30;99.90
9973;DHT22;5027;53.560;10.062;2024-01-27T10:58:24;9.30;99.90
9973;DHT22;5027;53.560;10.062;2024-01-27T11:00:53;9.20;99.90
9973;DHT22;5027;53.560;10.062;2024-01-27T11:03:21;9.20;99.90
9973;DHT22;5027;53.560;10.062;2024-01-27T11:05:50;9.10;99.90
9973;DHT22;5027;53.560;10.062;2024-01-27T11:08:18;9.30;99.90
9973;DHT22;5027;53.560;10.062;2024-01-27T11:10:46;9.00;99.90
9973;DHT22;5027;53.560;10.062;2024-01-27T11:13:13;9.10;99.90
9973;DHT22;5027;53.560;10.062;2024-01-27T11:15:53;9.10;99.90
9973;DHT22;5027;53.560;10.062;2024-01-27T11:18:20;9.00;99.90
9973;DHT22;5027;53.560;10.062;2024-01-27T11:20:47;9.20;99.90
9973;DHT22;5027;53.560;10.062;2024-01-27T11:23:14;9.20;99.90
9973;DHT22;5027;53.560;10.062;2024-01-27T11:25:41;9.20;99.90
9973;DHT22;5027;53.560;10.062;2024-01-27T11:28:13;9.50;99.90
9973;DHT22;5027;53.560;10.062;2024-01-27T11:30:46;9.30;99.90
9973;DHT22;5027;53.560;10.062;2024-01-27T11:33:13;9.20;99.90
9973;DHT22;5027;53.560;10.062;2024-01-27T11:35:40;9.30;99.90
9973;DHT22;5027;53.560;10.062;2024-01-27T11:38:07;9.40;99.90
9973;DHT22;5027;53.560;10.062;2024-01-27T11:40:44;9.40;99.90
9973;DHT22;5027;53.560;10.062;2024-01-27T11:43:11;9.70;99.90
9973;DHT22;5027;53.560;10.062;2024-01-27T11:45:40;9.70;99.90
9973;DHT22;5027;53.560;10.062;2024-01-27T11:48:07;9.90;99.90
9973;DHT22;5027;53.560;10.062;2024-01-27T11:50:34;10.10;99.90
9973;DHT22;5027;53.560;10.062;2024-01-27T11:53:01;10.10;99.90
9973;DHT22;5027;53.560;10.062;2024-01-27T11:55:27;10.20;99.90
9973;DHT22;5027;53.560;10.062;2024-01-27T11:57:54;10.30;99.90
9973;DHT22;5027;53.560;10.062;2024-01-27T12:00:21;10.40;99.90
9973;DHT22;5027;53.560;10.062;2024-01-27T12:02:50;10.40;99.90
9973;DHT22;5027;53.560;10.062;2024-01-27T12:05:18;10.40;99.90
9973;DHT22;5027;53.560;10.062;2024-01-27T12:07:45;10.30;99.90
9973;DHT22;5027;53.560;10.062;2024-01-27T12:10:12;10.50;99.90
9973;DHT22;5027;53.560;10.062;2024-01-27T12:12:39;10.60;99.90
9973;DHT22;5027;53.560;10.062;2024-01-27T12:15:06;10.50;99.90
9973;DHT22;5027;53.560;10.062;2024-01-27T12:17:33;10.60;99.90
9973;DHT22;5027;53.560;10.062;2024-01-27T12:20:01;10.70;99.90
9973;DHT22;5027;53.560;10.062;2024-01-27T12:22:28;10.70;99.90
9973;DHT22;5027;53.560;10.062;2024-01-27T12:25:07;10.70;99.90
9973;DHT22;5027;53.560;10.062;2024-01-27T12:27:34;10.70;99.90
9973;DHT22;5027;53.560;10.062;2024-01-27T12:30:02;10.80;99.90
9973;DHT22;5027;53.560;10.062;2024-01-27T12:32:29;10.80;99.90
9973;DHT22;5027;53.560;10.062;2024-01-27T12:34:57;10.90;99.90
9973;DHT22;5027;53.560;10.062;2024-01-27T12:37:27;10.90;99.90
9973;DHT22;5027;53.560;10.062;2024-01-27T12:39:54;10.90;99.90
9973;DHT22;5027;53.560;10.062;2024-01-27T12:42:21;10.90;99.90
9973;DHT22;5027;53.560;10.062;2024-01-27T12:44:48;10.90;99.90
9973;DHT22;5027;53.560;10.062;2024-01-27T12:47:15;10.90;99.90
9973;DHT22;5027;53.560;10.062;2024-01-27T12:49:42;11.00;99.90
9973;DHT22;5027;53.560;10.062;2024-01-27T12:52:09;11.20;99.90
9973;DHT22;5027;53.560;10.062;2024-01-27T12:54:36;11.10;99.90
9973;DHT22;5027;53.560;10.062;2024-01-27T12:57:03;11.20;99.90
9973;DHT22;5027;53.560;10.062;2024-01-27T12:59:30;11.20;99.90
9973;DHT22;5027;53.560;10.062;2024-01-27T13:01:58;11.10;99.90
9973;DHT22;5027;53.560;10.062;2024-01-27T13:04:25;11.00;99.90
9973;DHT22;5027;53.560;10.062;2024-01-27T13:06:52;10.90;99.90
9973;DHT22;5027;53.560;10.062;2024-01-27T13:09:20;10.90;99.90
9973;DHT22;5027;53.560;10.062;2024-01-27T13:11:47;10.90;99.90
9973;DHT22;5027;53.560;10.062;2024-01-27T13:14:14;11.00;99.90
9973;DHT22;5027;53.560;10.062;2024-01-27T13:16:42;11.20;99.90
9973;DHT22;5027;53.560;10.062;2024-01-27T13:19:09;11.20;99.90
9973;DHT22;5027;53.560;10.062;2024-01-27T13:21:36;11.30;99.90
9973;DHT22;5027;53.560;10.062;2024-01-27T13:24:06;11.40;99.90
9973;DHT22;5027;53.560;10.062;2024-01-27T13:26:36;11.40;99.90
9973;DHT22;5027;53.560;10.062;2024-01-27T13:29:04;11.40;99.90
9973;DHT22;5027;53.560;10.062;2024-01-27T13:31:32;11.30;99.90
9973;DHT22;5027;53.560;10.062;2024-01-27T13:33:58;11.30;99.90
9973;DHT22;5027;53.560;10.062;2024-01-27T13:36:25;11.40;99.90
9973;DHT22;5027;53.560;10.062;2024-01-27T13:38:52;11.30;99.90
9973;DHT22;5027;53.560;10.062;2024-01-27T13:41:19;11.40;99.90
9973;DHT22;5027;53.560;10.062;2024-01-27T13:43:46;11.40;99.90
9973;DHT22;5027;53.560;10.062;2024-01-27T13:46:13;11.50;99.90
9973;DHT22;5027;53.560;10.062;2024-01-27T13:48:40;11.50;99.90
9973;DHT22;5027;53.560;10.062;2024-01-27T13:51:07;11.40;99.90
9973;DHT22;5027;53.560;10.062;2024-01-27T13:53:34;11.50;99.90
9973;DHT22;5027;53.560;10.062;2024-01-27T13:56:13;11.40;99.90
9973;DHT22;5027;53.560;10.062;2024-01-27T13:58:40;11.30;99.90
9973;DHT22;5027;53.560;10.062;2024-01-27T14:01:07;11.30;99.90
9973;DHT22;5027;53.560;10.062;2024-01-27T14:03:35;11.30;99.90
9973;DHT22;5027;53.560;10.062;2024-01-27T14:06:05;11.30;99.90
9973;DHT22;5027;53.560;10.062;2024-01-27T14:08:32;11.30;99.90
9973;DHT22;5027;53.560;10.062;2024-01-27T14:10:59;11.10;99.90
9973;DHT22;5027;53.560;10.062;2024-01-27T14:13:26;11.10;99.90
9973;DHT22;5027;53.560;10.062;2024-01-27T14:15:53;11.10;99.90
9973;DHT22;5027;53.560;10.062;2024-01-27T14:18:19;11.00;99.90
9973;DHT22;5027;53.560;10.062;2024-01-27T14:20:48;10.90;99.90
9973;DHT22;5027;53.560;10.062;2024-01-27T14:23:15;10.90;99.90
9973;DHT22;5027;53.560;10.062;2024-01-27T14:25:42;10.80;99.90
9973;DHT22;5027;53.560;10.062;2024-01-27T14:28:13;10.80;99.90
9973;DHT22;5027;53.560;10.062;2024-01-27T14:30:41;10.80;99.90
9973;DHT22;5027;53.560;10.062;2024-01-27T14:33:08;10.70;99.90
9973;DHT22;5027;53.560;10.062;2024-01-27T14:35:35;10.70;99.90
9973;DHT22;5027;53.560;10.062;2024-01-27T14:38:02;10.70;99.90
9973;DHT22;5027;53.560;10.062;2024-01-27T14:40:29;10.70;99.90
9973;DHT22;5027;53.560;10.062;2024-01-27T14:42:59;10.60;99.90
9973;DHT22;5027;53.560;10.062;2024-01-27T14:45:26;10.60;99.90
9973;DHT22;5027;53.560;10.062;2024-01-27T14:47:53;10.60;99.90
9973;DHT22;5027;53.560;10.062;2024-01-27T14:50:24;10.50;99.90
9973;DHT22;5027;53.560;10.062;2024-01-27T14:52:52;10.60;99.90
9973;DHT22;5027;53.560;10.062;2024-01-27T14:55:19;10.50;99.90
9973;DHT22;5027;53.560;10.062;2024-01-27T14:57:47;10.50;99.90
9973;DHT22;5027;53.560;10.062;2024-01-27T15:00:14;10.50;99.90
9973;DHT22;5027;53.560;10.062;2024-01-27T15:02:42;10.60;99.90
9973;DHT22;5027;53.560;10.062;2024-01-27T15:05:12;10.60;99.90
9973;DHT22;5027;53.560;10.062;2024-01-27T15:07:39;10.50;99.90
9973;DHT22;5027;53.560;10.062;2024-01-27T15:10:06;10.60;99.90
9973;DHT22;5027;53.560;10.062;2024-01-27T15:12:33;10.50;99.90
9973;DHT22;5027;53.560;10.062;2024-01-27T15:15:00;10.40;99.90
9973;DHT22;5027;53.560;10.062;2024-01-27T15:17:27;10.40;99.90
9973;DHT22;5027;53.560;10.062;2024-01-27T15:19:54;10.30;99.90
9973;DHT22;5027;53.560;10.062;2024-01-27T15:22:22;10.40;99.90
9973;DHT22;5027;53.560;10.062;2024-01-27T15:24:49;10.40;99.90
9973;DHT22;5027;53.560;10.062;2024-01-27T15:27:16;10.40;99.90
9973;DHT22;5027;53.560;10.062;2024-01-27T15:29:43;10.40;99.90
9973;DHT22;5027;53.560;10.062;2024-01-27T15:32:09;10.40;99.90
9973;DHT22;5027;53.560;10.062;2024-01-27T15:34:36;10.40;99.90
9973;DHT22;5027;53.560;10.062;2024-01-27T15:37:04;10.40;99.90
9973;DHT22;5027;53.560;10.062;2024-01-27T15:39:31;10.40;99.90
9973;DHT22;5027;53.560;10.062;2024-01-27T15:41:58;10.30;99.90
9973;DHT22;5027;53.560;10.062;2024-01-27T15:44:28;10.30;99.90
9973;DHT22;5027;53.560;10.062;2024-01-27T15:46:55;10.30;99.90
9973;DHT22;5027;53.560;10.062;2024-01-27T15:49:23;10.30;99.90
9973;DHT22;5027;53.560;10.062;2024-01-27T15:51:50;10.30;99.90
9973;DHT22;5027;53.560;10.062;2024-01-27T15:54:16;10.30;99.90
9973;DHT22;5027;53.560;10.062;2024-01-27T15:56:45;10.30;99.90